Tiempo atmosférico en la estación meteorológica de Estaca De Bares, A Coruña (80 m.)



Fecha
DESCASC
Temp. máxima en grados centígrados (hora)
DESCASC
Temp. mínima en grados centígrados (hora)
DESCASC
Temp. media en grados centígrados
DESCASC
Racha de viento máxima en m/sg (hora)
DESCASC
Velocidad máxima media en intervalos de 10 minutos(hora)
DESCASC
Precipitaciones diarias en mm
DESCASC
Precipitaciones de 00:00 a 06:00 en mm
DESCASC
Precipitaciones de 06:00 a 12:00 en mm
DESCASC
Precipitaciones de 12:00 a 18:00 en mm
DESCASC
Precipitaciones de 18:00 a 24:00 en mm
DESCASC
18-01-2018 13 (15:50) 9.9 (03:30) 11.4 16.11 (06:00) 13.89 (06:10) 0 0 0 0 0
17-01-2018 14 (12:30) 10.7 (07:10) 12.3 21.94 (00:40) 18.89 (00:40) 0 0 0 0 0
16-01-2018 13.3 (14:50) 11.9 (04:10) 12.6 25.28 (22:00) 19.17 (04:00) 0 0 0 0 0
15-01-2018 12.6 (13:00) 8.2 (03:20) 10.4 26.11 (15:50) 21.67 (15:50) 0 0 0 0 0
14-01-2018 13.2 (14:40) 7.2 (00:00) 10.2 12.5 (01:20) 10.28 (02:40) 0 0 0 0 0
13-01-2018 12.4 (13:40) 7.2 (00:00) 9.8 17.5 (17:00) 13.89 (17:00) 1.6 1.2 0 0 0.4
12-01-2018 12.2 (15:30) 7.5 (00:00) 9.8 18.33 (20:30) 13.33 (20:30) 0.4 0 0 0 0.4
11-01-2018 12.2 (12:40) 8.1 (00:00) 10.2 27.78 (01:00) 22.22 (00:10) 1.4 1.2 0.2 0 0
10-01-2018 11.9 (12:20) 6.7 (00:00) 9.3 34.72 (15:50) 27.5 (15:50) 2.6 0 0.6 1.4 0.6
09-01-2018 14 (15:40) 9.6 (00:00) 11.8 30.28 (13:00) 25.28 (13:20) 0.4 0 0.2 0 0.2
08-01-2018 13.7 (13:50) 9.9 (00:00) 11.8 14.72 (23:30) 13.33 (23:30) 0 0 0 0 0
07-01-2018 11.5 (21:10) 7.6 (00:00) 9.5 21.94 (14:50) 13.33 (14:10) 3.6 0 1.2 1.6 0.8
06-01-2018 11 (14:50) 5.2 (00:00) 8.1 16.39 (05:40) 13.33 (05:40) 1.6 0.8 0 0 0.8
05-01-2018 13.4 (00:20) 6.3 (00:00) 9.8 23.33 (00:10) 20 (17:40) 14 4.8 3.8 3.4 2
04-01-2018 16.7 (13:40) 13.2 (23:20) 15 27.78 (13:30) 22.78 (09:50) 2 0 0.2 0 1.8
03-01-2018 15.3 (00:30) 14.3 (00:00) 14.8 27.5 (01:10) 21.39 (01:20) 0.8 0.2 0.2 0.4 0
02-01-2018 15.4 (21:20) 12.9 (00:00) 14.1 25 (05:50) 20 (23:30) 0.8 0.2 0.6 0 0
01-01-2018 13.9 (13:10) 10.9 (00:00) 12.4 32.5 (11:00) 27.22 (13:20) 2.6 0 0.2 2.2 0.2
31-12-2017 15.5 (06:20) 8.7 (00:00) 12.1 36.39 (14:50) 31.11 (14:50) 8.6 0 7.4 0.2 1
30-12-2017 16.9 (15:00) 14.3 (00:00) 15.6 26.67 (21:00) 21.11 (01:00) 0 0 0 0 0
29-12-2017 16 (15:00) 11.7 (00:00) 13.8 25.83 (23:20) 21.11 (23:20) 4.4 4.2 0.2 0 0
28-12-2017 14 (13:30) 9.5 (00:00) 11.8 27.5 (07:50) 21.39 (07:50) 1.2 0.4 0.8 0 0
27-12-2017 11.9 (01:10) 8.3 (00:00) 10.1 36.11 (00:40) 29.17 (00:40) 3.4 1 1.4 0 1
26-12-2017 13.7 (18:40) 8.4 (00:00) 11 46.11 (20:30) 32.22 (20:30) 2.6 0.2 0.2 0.4 1.8
25-12-2017 14.9 (15:00) 9.1 (00:00) 12 29.72 (17:30) 22.22 (18:20) 1.8 0 0 1.6 0.2
24-12-2017 16.2 (15:20) 8.7 (00:00) 12.5 11.94 (00:30) 8.33 (00:10) 0 0 0 0 0

Gráficas

Temp. máximas Temp. mínimas Temp. medias Precipitaciones Rachas de viento máximas Velocidades máximas media en intervalos de 10 minutos

Datos horarios

Fecha y hora oficial Temperatura (ºC) Velocidad del viento (km/h) Dirección del viento Racha (km/h) Dirección de racha Precipitación (mm) Presión (hPa) Tendencia (hPa) Humedad (%)
2018-01-22 23:00:00 13.3 32 Sudoeste 44 Oeste 0 1017.6 -0.6 83
2018-01-22 22:00:00 13.2 32 Oeste 42 Sudoeste 0 1017.5 -0.5 84
2018-01-22 21:00:00 13.1 27 Sudoeste 32 Sudoeste 0 1018.1 0.4 88
2018-01-22 20:00:00 13.4 25 Oeste 31 Oeste 0 1018.2 0.9 86
2018-01-22 19:00:00 13.7 26 Oeste 36 Oeste 0 1018 1.3 83
2018-01-22 18:00:00 14.2 31 Oeste 39 Sudoeste 0 1017.7 1.1 84
2018-01-22 17:00:00 13.7 34 Oeste 43 Oeste 0 1017.3 0.3 86
2018-01-22 16:00:00 14.4 40 Oeste 52 Oeste 0 1016.7 -0.7 80
2018-01-22 15:00:00 14.7 45 Oeste 55 Oeste 0 1016.6 -1.1 78
2018-01-22 14:00:00 15.6 48 Oeste 58 Oeste 0 1017 -0.3 74
2018-01-22 13:00:00 14.8 46 Oeste 59 Oeste 0 1017.4 0.6 75
2018-01-22 12:00:00 14.9 50 Oeste 59 Oeste 0 1017.7 1.8 74
2018-01-22 11:00:00 13.6 48 Oeste 58 Oeste 0 1017.3 1.5 77
2018-01-22 10:00:00 13.3 47 Oeste 68 Oeste 0 1016.8 0.4 78
2018-01-22 09:00:00 12.6 57 Oeste 71 Oeste 0 1015.9 -0.2 80
2018-01-22 08:00:00 12.2 60 Oeste 75 Oeste 0.2 1015.8 -0.3 82
2018-01-22 07:00:00 12.3 54 Oeste 68 Oeste 0 1016.4 0.3 82
2018-01-22 06:00:00 12.3 59 Oeste 68 Oeste 0 1016.1 0.1 82
2018-01-22 05:00:00 12.2 54 Oeste 70 Oeste 0 1016.1 -0.6 83
2018-01-22 04:00:00 12.5 55 Oeste 69 Oeste 0 1016.1 -1 82
2018-01-22 03:00:00 12.4 50 Oeste 62 Oeste 0 1016 -1.8 84
2018-01-22 02:00:00 12.4 52 Oeste 62 Oeste 0 1016.7 -1.2 84
2018-01-22 01:00:00 12.1 55 Oeste 67 Oeste 0 1017.1 -0.8 88
2018-01-22 00:00:00 12.4 34 Oeste 46 Oeste 0 1017.8 0 89
2018-01-21 23:00:00 12.4 40 Oeste 46 Oeste 0 1017.9 0 88
2018-01-21 22:00:00 13 39 Oeste 52 Oeste 0 1017.9 0.3 85
2018-01-21 21:00:00 13 41 Oeste 51 Oeste 0 1017.8 0.2 85
2018-01-21 20:00:00 13.1 37 Oeste 48 Oeste 0 1017.9 0.5 85
2018-01-21 19:00:00 13.2 42 Oeste 55 Oeste 0 1017.6 0.2 85
2018-01-21 18:00:00 13.6 38 Oeste 46 Oeste 0 1017.6 0.1 85
2018-01-21 17:00:00 13.8 39 Oeste 50 Oeste 0 1017.4 -0.5 85
2018-01-21 16:00:00 14 41 Oeste 50 Oeste 0 1017.4 -1.2 84
2018-01-21 15:00:00 14.1 45 Oeste 57 Oeste 0 1017.5 -1.6 82
2018-01-21 14:00:00 15.1 48 Oeste 56 Oeste 0 1017.9 -0.5 79
2018-01-21 13:00:00 14.3 46 Oeste 59 Oeste 0 1018.6 0.6 81
2018-01-21 12:00:00 14.1 45 Oeste 54 Oeste 0 1019.1 1.5 83
2018-01-21 11:00:00 13.2 47 Oeste 54 Oeste 0 1018.4 1.1 86
2018-01-21 10:00:00 13 48 Oeste 57 Oeste 0 1018 1.3 87
2018-01-21 09:00:00 12.8 44 Oeste 53 Oeste 0 1017.6 0.6 88
2018-01-21 08:00:00 12.8 44 Oeste 54 Oeste 0 1017.3 0.3 88
2018-01-21 07:00:00 12.6 45 Oeste 53 Oeste 0 1016.7 -0.5 88
2018-01-21 06:00:00 12.7 45 Oeste 54 Oeste 0 1017 -0.1 89
2018-01-21 05:00:00 12.6 45 Oeste 51 Oeste 0 1017 0.2 88
2018-01-21 04:00:00 12.7 42 Oeste 51 Oeste 0 1017.2 0.2 88
2018-01-21 03:00:00 12.8 43 Oeste 51 Oeste 0 1017.1 0.7 88
2018-01-21 02:00:00 12.5 46 Oeste 54 Oeste 0 1016.8 0.8 90
2018-01-21 01:00:00 12.6 38 Oeste 54 Oeste 0 1017 1.1 89
2018-01-21 00:00:00 12.8 46 Oeste 57 Oeste 0 1016.4 0.8 88
2018-01-20 23:00:00 12.9 49 Oeste 62 Oeste 0 1016 0.5 87
2018-01-20 22:00:00 13 55 Oeste 66 Oeste 0 1015.9 1 86
2018-01-20 21:00:00 13.1 55 Oeste 65 Oeste 0 1015.6 1.9 86
2018-01-20 20:00:00 13.1 51 Oeste 65 Oeste 0 1015.5 1.9 85
2018-01-20 19:00:00 13.1 58 Oeste 72 Oeste 0 1014.9 1.8 85
2018-01-20 18:00:00 13.1 64 Oeste 71 Oeste 0 1013.7 0.9 84
2018-01-20 17:00:00 13.4 60 Oeste 76 Oeste 0 1013.6 0.6 82
2018-01-20 16:00:00 13.6 59 Oeste 77 Oeste 0 1013.1 0.2 82
2018-01-20 15:00:00 13.5 60 Oeste 71 Oeste 0 1012.8 -0.7 83
2018-01-20 14:00:00 13.4 64 Oeste 77 Oeste 0 1013 -0.5 82
2018-01-20 13:00:00 12.9 67 Oeste 76 Oeste 0 1012.9 -0.3 83
2018-01-20 12:00:00 12.4 63 Oeste 77 Oeste 0 1013.5 1.1 83
2018-01-20 11:00:00 12 63 Oeste 74 Oeste 0 1013.5 1.2 84
2018-01-20 10:00:00 11.6 62 Oeste 82 Oeste 0 1013.2 1.1 84
2018-01-20 09:00:00 11.1 64 Oeste 81 Oeste 0 1012.4 0.3 84
2018-01-20 08:00:00 11.3 63 Oeste 76 Oeste 0 1012.3 0.2 81
2018-01-20 07:00:00 10.9 65 Oeste 73 Oeste 0 1012.1 -0.5 81
2018-01-20 06:00:00 10.9 63 Oeste 75 Oeste 0 1012.1 -1.3 80
2018-01-20 05:00:00 11.1 61 Oeste 76 Oeste 0 1012.1 -2.2 77
2018-01-20 04:00:00 11 60 Oeste 70 Oeste 0 1012.6 -2.1 77
2018-01-20 03:00:00 10.8 54 Oeste 65 Oeste 0 1013.4 -1.3 77
2018-01-20 02:00:00 11 48 Oeste 57 Oeste 0 1014.3 -1.1 78
2018-01-20 01:00:00 10.9 46 Oeste 63 Oeste 0 1014.7 -1.5 79
2018-01-20 00:00:00 10.9 43 Oeste 51 Oeste 0 1014.7 -1.5 82
2018-01-19 23:00:00 10.9 36 Oeste 42 Oeste 0 1015.4 -1 80
2018-01-19 22:00:00 11 31 Oeste 39 Sudoeste 0 1016.2 0.5 80
2018-01-19 21:00:00 11.3 25 Oeste 32 Oeste 0 1016.2 0.6 78
2018-01-19 20:00:00 11.6 28 Oeste 35 Oeste 0 1016.4 1.3 77
2018-01-19 19:00:00 11.7 24 Oeste 40 Oeste 0 1015.7 0.7 75
2018-01-19 18:00:00 12 36 Oeste 43 Oeste 0 1015.6 1.1 74
2018-01-19 17:00:00 12.6 32 Oeste 41 Oeste 0 1015.1 0.1 70
2018-01-19 16:00:00 13 35 Oeste 46 Oeste 0 1015 -0.2 71
2018-01-19 15:00:00 14 33 Oeste 43 Oeste 0 1014.5 -1.1 65
2018-01-19 14:00:00 14.1 28 Oeste 37 Oeste 0 1015 0.1 62
2018-01-19 13:00:00 13.3 27 Oeste 33 Oeste 0 1015.2 0.6 65
2018-01-19 12:00:00 12.8 26 Oeste 31 Noroeste 0.2 1015.6 1.7 67
2018-01-19 11:00:00 12 19 Noroeste 42 Oeste 0 1014.9 1.8 70
2018-01-19 10:00:00 11.5 34 Oeste 43 Oeste 0 1014.6 2.1 76
2018-01-19 09:00:00 11.1 36 Noroeste 54 Noroeste 0 1013.9 1.9 74
2018-01-19 08:00:00 11 30 Noroeste 48 Noroeste 0.2 1013.1 1.8 81
2018-01-19 07:00:00 11.1 15 Noroeste 39 Noroeste 0 1012.5 0.8 91
2018-01-19 06:00:00 11.7 21 Oeste 44 Oeste 0 1012 0.1 91
2018-01-19 05:00:00 12 29 Oeste 34 Oeste 0 1011.3 -0.9 90
2018-01-19 04:00:00 11.9 29 Oeste 36 Oeste 0 1011.7 -0.6 90
2018-01-19 03:00:00 11.8 26 Oeste 35 Sudoeste 0 1011.9 -0.5 90
2018-01-19 02:00:00 11.8 31 Oeste 38 Sudoeste 0 1012.2 -0.2 89
2018-01-19 01:00:00 11.8 31 Oeste 42 Oeste 0 1012.3 -0.1 89
2018-01-19 00:00:00 11.9 32 Oeste 39 Oeste 0 1012.4 0.1 89
2018-01-18 23:00:00 11.9 34 Oeste 44 Sudoeste 0 1012.4 0.3 88
2018-01-18 22:00:00 11.9 36 Oeste 47 Oeste 0 1012.4 0.3 87
2018-01-18 21:00:00 12.1 39 Oeste 50 Oeste 0 1012.3 0.4 85
2018-01-18 20:00:00 12 39 Oeste 50 Sudoeste 0 1012.1 0.3 84
2018-01-18 19:00:00 11.9 39 Oeste 47 Oeste 0 1012.1 0.6 83
2018-01-18 18:00:00 12 41 Oeste 49 Oeste 0 1011.9 0 82
2018-01-18 17:00:00 12.3 41 Oeste 53 Sudoeste 0 1011.8 -0.8 79
2018-01-18 16:00:00 12.6 40 Oeste 53 Sudoeste 0 1011.5 -1.5 77
2018-01-18 15:00:00 12.6 42 Oeste 52 Oeste 0 1011.9 -1.6 78
2018-01-18 14:00:00 12.9 42 Oeste 51 Oeste 0 1012.6 -1 76
2018-01-18 13:00:00 12.2 45 Oeste 53 Oeste 0 1013 -0.5 78
2018-01-18 12:00:00 11.6 44 Oeste 52 Oeste 0 1013.5 0.3 79
2018-01-18 11:00:00 11 42 Oeste 52 Oeste 0 1013.6 0.2 81
2018-01-18 10:00:00 10.6 42 Oeste 51 Oeste 0 1013.5 0.3 80
2018-01-18 09:00:00 10.4 41 Oeste 51 Sudoeste 0 1013.2 0 79
2018-01-18 08:00:00 10.3 40 Oeste 52 Sudoeste 0 1013.4 -0.3 77
2018-01-18 07:00:00 10.4 46 Oeste 56 Oeste 0 1013.2 -1 76
2018-01-18 06:00:00 10.2 48 Oeste 58 Oeste 0 1013.2 -1.5 75
2018-01-18 05:00:00 10.1 43 Oeste 52 Oeste 0 1013.7 -1.9 75
2018-01-18 04:00:00 10 42 Oeste 53 Oeste 0 1014.2 -2.3 74
2018-01-18 03:00:00 10.1 40 Oeste 46 Oeste 0 1014.7 -2.2 75
2018-01-18 02:00:00 10.3 36 Oeste 42 Oeste 0 1015.6 -1.9 72
2018-01-18 01:00:00 10.6 31 Oeste 38 Oeste 0 1016.5 -1.1 72
2018-01-18 00:00:00 10.7 30 Oeste 40 Oeste 0 1016.9 -0.8 71
2018-01-17 23:00:00 10.8 28 Oeste 38 Oeste 0 1017.5 0.2 72
2018-01-17 22:00:00 10.8 29 Oeste 44 Oeste 0 1017.6 0.1 73
2018-01-17 21:00:00 10.8 22 Oeste 33 Oeste 0 1017.7 -0.1 76
2018-01-17 20:00:00 11 32 Oeste 38 Oeste 0 1017.3 -0.8 69
2018-01-17 19:00:00 11.4 31 Oeste 35 Oeste 0 1017.5 -0.8 72
2018-01-17 18:00:00 11.3 22 Oeste 31 Oeste 0 1017.8 -0.8 69
2018-01-17 17:00:00 11.7 28 Oeste 32 Oeste 0 1018.1 -1.1 67
2018-01-17 16:00:00 11.8 26 Noroeste 37 Noroeste 0 1018.3 -1.6 68
2018-01-17 15:00:00 12.4 26 Noroeste 35 Oeste 0 1018.6 -1.3 69
2018-01-17 14:00:00 12.6 33 Oeste 37 Oeste 0 1019.2 -0.7 62
2018-01-17 13:00:00 13 28 Oeste 36 Oeste 0 1019.9 0.7 60
2018-01-17 12:00:00 13.3 28 Oeste 31 Oeste 0 1019.9 1.1 58
2018-01-17 11:00:00 12 23 Oeste 34 Noroeste 0 1019.9 1.6 61
2018-01-17 10:00:00 11.6 32 Noroeste 45 Noroeste 0 1019.2 1.7 63
2018-01-17 09:00:00 11.6 23 Noroeste 44 Noroeste 0 1018.8 1.4 74
2018-01-17 08:00:00 11.5 30 Noroeste 47 Noroeste 0 1018.3 0.9 72
2018-01-17 07:00:00 11.1 31 Noroeste 55 Oeste 0 1017.5 0.4 73
2018-01-17 06:00:00 11.6 42 Oeste 67 Noroeste 0 1017.4 0.7 65
2018-01-17 05:00:00 11.9 48 Oeste 58 Noroeste 0 1017.4 1.2 71
2018-01-17 04:00:00 11.8 53 Oeste 66 Noroeste 0 1017.1 1.9 67
2018-01-17 03:00:00 11.8 54 Oeste 69 Oeste 0 1016.7 1.8 70
2018-01-17 02:00:00 11.9 54 Oeste 76 Oeste 0 1016.2 2.2 76
2018-01-17 01:00:00 12.1 67 Oeste 79 Oeste 0 1015.2 1.7 74
2018-01-17 00:00:00 12.8 56 Oeste 82 Oeste 0 1014.9 1.5 84
2018-01-16 23:00:00 12.8 68 Oeste 80 Oeste 0 1014 1.3 81
2018-01-16 22:00:00 13 66 Oeste 91 Oeste 0 1013.5 0.5 80
2018-01-16 21:00:00 12.9 66 Oeste 82 Oeste 0 1013.4 1 82
2018-01-16 20:00:00 12.7 64 Oeste 81 Oeste 0 1012.7 0.3 87
2018-01-16 19:00:00 12.8 59 Oeste 77 Oeste 0 1013 0.8 88
2018-01-16 18:00:00 12.9 54 Oeste 75 Oeste 0 1012.4 0.1 88
2018-01-16 17:00:00 13 65 Oeste 77 Oeste 0 1012.4 -1.1 87
2018-01-16 16:00:00 13 57 Oeste 71 Oeste 0 1012.2 -1.7 88
2018-01-16 15:00:00 13.2 59 Oeste 74 Oeste 0 1012.3 -1.9 87
2018-01-16 14:00:00 13.1 54 Oeste 69 Oeste 0 1013.5 -0.3 88
2018-01-16 13:00:00 12.8 62 Oeste 71 Oeste 0 1013.9 0.9 88
2018-01-16 12:00:00 12.5 59 Oeste 68 Oeste 0 1014.2 1.4 89
2018-01-16 11:00:00 12.6 55 Oeste 74 Oeste 0 1013.8 1.1 88
2018-01-16 10:00:00 12.7 67 Oeste 76 Oeste 0 1013 0.8 86
2018-01-16 09:00:00 12.3 60 Oeste 71 Oeste 0 1012.8 0.3 88
2018-01-16 08:00:00 12.3 59 Oeste 66 Oeste 0 1012.7 0.1 88
2018-01-16 07:00:00 12.2 54 Oeste 67 Oeste 0 1012.2 0 89
2018-01-16 06:00:00 12.1 51 Oeste 67 Oeste 0 1012.5 0.5 90
2018-01-16 05:00:00 12.2 56 Oeste 78 Oeste 0 1012.6 0.2 91
2018-01-16 04:00:00 12 69 Oeste 80 Oeste 0 1012.2 0.2 91
2018-01-16 03:00:00 12.3 57 Oeste 72 Oeste 0 1012 0.2 91
2018-01-16 02:00:00 12.3 55 Oeste 68 Oeste 0 1012.4 1.4 91
2018-01-16 01:00:00 12.2 58 Oeste 72 Oeste 0 1012 1 91
2018-01-16 00:00:00 12 61 Oeste 72 Oeste 0 1011.8 1.9 90
2018-01-15 23:00:00 11.9 60 Oeste 76 Oeste 0 1011 1.6 89
2018-01-15 22:00:00 12.1 64 Oeste 81 Oeste 0 1011 2 87
2018-01-15 21:00:00 11.9 72 Oeste 88 Oeste 0 1009.9 1.2 86
2018-01-15 20:00:00 11.8 74 Oeste 91 Oeste 0 1009.4 1.3 84
2018-01-15 19:00:00 11.5 71 Oeste 90 Oeste 0 1009 0.8 84
2018-01-15 18:00:00 11.6 74 Oeste 90 Oeste 0 1008.7 0 82
2018-01-15 17:00:00 11.9 73 Oeste 89 Oeste 0 1008.1 -1.2 79
2018-01-15 16:00:00 11.8 75 Oeste 94 Oeste 0 1008.2 -2 77
2018-01-15 15:00:00 11.7 72 Oeste 94 Sudoeste 0 1008.7 -2.9 75
2018-01-15 14:00:00 11.8 73 Oeste 91 Oeste 0 1009.3 -2.6 72
2018-01-15 13:00:00 12.6 69 Oeste 90 Oeste 0 1010.2 -1.7 68
2018-01-15 12:00:00 11.1 65 Oeste 78 Oeste 0 1011.6 -0.8 72
2018-01-15 11:00:00 10.3 58 Oeste 69 Oeste 0 1011.9 -0.2 76
2018-01-15 10:00:00 9.7 49 Oeste 64 Oeste 0 1011.9 -0.3 76
2018-01-15 09:00:00 9.6 46 Oeste 61 Sudoeste 0 1012.4 0.1 78
2018-01-15 08:00:00 9 48 Oeste 62 Sudoeste 0 1012.1 -0.7 77
2018-01-15 07:00:00 8.7 49 Oeste 60 Oeste 0 1012.2 -0.3 78
2018-01-15 06:00:00 8.3 45 Oeste 51 Oeste 0 1012.3 -0.5 77
2018-01-15 05:00:00 8.3 38 Oeste 43 Oeste 0 1012.8 -0.3 82
2018-01-15 04:00:00 8.3 37 Oeste 46 Oeste 0 1012.5 -0.9 81
2018-01-15 03:00:00 8.5 38 Oeste 45 Oeste 0 1012.8 -0.7 82
2018-01-15 02:00:00 8.7 28 Oeste 36 Sudoeste 0 1013.1 -0.4 81
2018-01-15 01:00:00 8.7 30 Oeste 35 Oeste 0 1013.4 0.5 81
2018-01-15 00:00:00 8.9 21 Sudoeste 28 Oeste 0 1013.5 1 80
2018-01-14 23:00:00 8.8 24 Oeste 28 Oeste 0 1013.5 1.4 81
2018-01-14 22:00:00 8.8 20 Oeste 27 Oeste 0 1012.9 1.5 80
2018-01-14 21:00:00 8.8 17 Oeste 22 Oeste 0 1012.5 1.9 74
2018-01-14 20:00:00 8.8 13 Sudoeste 22 Oeste 0 1012.1 2.2 74
2018-01-14 19:00:00 9 18 Oeste 21 Oeste 0 1011.4 2 76
2018-01-14 18:00:00 10.6 13 Oeste 28 Oeste 0 1010.6 1.5 70
2018-01-14 17:00:00 11.2 25 Oeste 38 Oeste 0 1009.9 0.9 68
2018-01-14 16:00:00 11.9 34 Oeste 39 Oeste 0 1009.4 -0.3 68
2018-01-14 15:00:00 13 19 Oeste 23 Oeste 0 1009.1 -0.5 64
2018-01-14 14:00:00 12.8 16 Oeste 20 Oeste 0 1009 0.2 67
2018-01-14 13:00:00 11.7 17 Sudoeste 25 Sudoeste 0 1009.7 1.4 74
2018-01-14 12:00:00 10.5 23 Oeste 30 Oeste 0 1009.6 1.8 75
2018-01-14 11:00:00 9.3 27 Oeste 36 Oeste 0 1008.8 1.7 77
2018-01-14 10:00:00 8.5 23 Oeste 32 Oeste 0 1008.3 1.6 81
2018-01-14 09:00:00 7.5 19 Sudoeste 42 Oeste 0 1007.8 1.1 82
2018-01-14 08:00:00 7.7 31 Oeste 35 Oeste 0 1007.1 0.6 83
2018-01-14 07:00:00 7.5 19 Sudoeste 29 Oeste 0 1006.7 0.2 84
2018-01-14 06:00:00 7.5 24 Oeste 36 Oeste 0 1006.7 0.6 85
2018-01-14 05:00:00 7.5 24 Oeste 38 Oeste 0 1006.5 0.4 84
2018-01-14 04:00:00 7.6 20 Oeste 45 Oeste 0 1006.5 0.3 86
2018-01-14 03:00:00 7.6 30 Oeste 44 Oeste 0 1006.1 0.1 87
2018-01-14 02:00:00 7.5 30 Oeste 45 Oeste 0 1006.1 0.4 86
2018-01-14 01:00:00 7.4 28 Oeste 41 Oeste 0 1006.2 0.9 86
2018-01-14 00:00:00 7.2 36 Oeste 51 Sudoeste 0.2 1006 0.9 85
2018-01-13 23:00:00 7.3 33 Oeste 48 Sudoeste 0.2 1005.7 0.8 84
2018-01-13 22:00:00 7.6 37 Sudoeste 47 Sudoeste 0 1005.3 1.2 84
2018-01-13 21:00:00 8.4 32 Oeste 37 Oeste 0 1005.1 1.2 82
2018-01-13 20:00:00 8.4 24 Sudoeste 46 Noroeste 0 1004.9 1.5 78
2018-01-13 19:00:00 8.5 23 Oeste 48 Sudoeste 0 1004.1 1.2 82
2018-01-13 18:00:00 8.7 12 Sudoeste 53 Oeste 0 1003.9 1.2 83
2018-01-13 17:00:00 8.8 50 Oeste 63 Oeste 0 1003.4 0.5 78
2018-01-13 16:00:00 10.4 36 Oeste 51 Sudoeste 0 1002.9 -0.5 79
2018-01-13 15:00:00 11 35 Oeste 50 Oeste 0 1002.7 -1.1 76
2018-01-13 14:00:00 11.1 32 Oeste 41 Oeste 0 1002.9 -0.6 75
2018-01-13 13:00:00 11 34 Oeste 43 Sudoeste 0 1003.4 0.7 77
2018-01-13 12:00:00 10.6 35 Oeste 45 Oeste 0 1003.8 1.5 78
2018-01-13 11:00:00 10.1 35 Oeste 46 Oeste 0 1003.5 1.1 81
2018-01-13 10:00:00 9.9 34 Oeste 44 Oeste 0 1002.7 0.6 82
2018-01-13 09:00:00 9.8 33 Oeste 40 Oeste 0 1002.3 0.2 83
2018-01-13 08:00:00 9.5 26 Oeste 35 Oeste 0 1002.4 0.2 84
2018-01-13 07:00:00 9.4 30 Oeste 36 Oeste 0 1002.1 -0.5 85
2018-01-13 06:00:00 9.6 28 Oeste 47 Sudoeste 0.2 1002.1 -0.6 85
2018-01-13 05:00:00 9.5 41 Sudoeste 51 Sudoeste 0.2 1002.2 -0.8 85
2018-01-13 04:00:00 9.4 31 Oeste 41 Sudoeste 0 1002.6 -1.2 83
2018-01-13 03:00:00 9.8 19 Sudoeste 46 Sudoeste 0 1002.7 -1.7 77
2018-01-13 02:00:00 9.8 22 Sudoeste 40 Sudoeste 0.4 1003 -1.8 76
2018-01-13 01:00:00 9.8 16 Sur 47 Sudoeste 0.4 1003.8 -1.6 75
2018-01-13 00:00:00 10.1 21 Sudoeste 45 Sur 0.4 1004.4 -1 71
2018-01-12 23:00:00 11.7 26 Sudoeste 43 Sudoeste 0 1004.8 -1.4 60
2018-01-12 22:00:00 11.6 28 Sudoeste 64 Sudoeste 0 1005.4 -1.1 59
2018-01-12 21:00:00 11.8 44 Sudoeste 66 Sudoeste 0 1005.4 -1.9 55
2018-01-12 20:00:00 11.6 32 Sudoeste 54 Sudoeste 0 1006.2 -1.9 57
2018-01-12 19:00:00 11.5 22 Sudoeste 40 Sudoeste 0 1006.5 -2.3 61
2018-01-12 18:00:00 11.4 18 Sur 38 Sur 0 1007.3 -2.3 62
2018-01-12 17:00:00 11.3 15 Sur 26 Sur 0 1008.1 -3 62
2018-01-12 16:00:00 11.6 20 Sur 38 Sudoeste 0 1008.8 -3.4 61
2018-01-12 15:00:00 11.6 22 Sudoeste 33 Sudoeste 0 1009.6 -3.3 62
2018-01-12 14:00:00 10.8 5 Noroeste 13 Oeste 0 1011.1 -2 68
2018-01-12 13:00:00 10 6 Oeste 11 Sudoeste 0 1012.2 -1.2 68
2018-01-12 12:00:00 9.8 7 Sudoeste 25 Sur 0 1012.9 -0.6 64
2018-01-12 11:00:00 9.4 12 Sudoeste 29 Sur 0 1013.1 -0.2 62
2018-01-12 10:00:00 8.7 12 Oeste 40 Sudoeste 0 1013.4 0 68
2018-01-12 09:00:00 8.3 13 Sur 23 Sur 0 1013.5 -0.6 64
2018-01-12 08:00:00 7.8 13 Sur 36 Sur 0 1013.3 -1.3 66
2018-01-12 07:00:00 7.8 15 Sur 24 Sur 0 1013.4 -1.6 66
2018-01-12 06:00:00 8 9 Oeste 19 Oeste 0 1014.1 -0.9 69
2018-01-12 05:00:00 7.8 8 Sudoeste 29 Oeste 0 1014.6 -1.1 72
2018-01-12 04:00:00 8.2 30 Oeste 34 Sudoeste 0 1015 -1 78
2018-01-12 03:00:00 8.7 28 Oeste 34 Oeste 0 1015 -1.1 74
2018-01-12 02:00:00 8.9 30 Oeste 37 Oeste 0 1015.7 -0.2 77
2018-01-12 01:00:00 9.2 32 Sudoeste 39 Sudoeste 0 1016 0.1 77
2018-01-12 00:00:00 9.5 30 Oeste 34 Sudoeste 0 1016.1 0.3 79
2018-01-11 23:00:00 10 23 Oeste 31 Oeste 0 1015.9 0.4 77
2018-01-11 22:00:00 10.4 27 Oeste 34 Oeste 0 1015.9 0.9 76
2018-01-11 21:00:00 10.7 31 Oeste 45 Oeste 0 1015.8 1.2 76
2018-01-11 20:00:00 10.9 39 Oeste 48 Oeste 0 1015.5 1.5 76
2018-01-11 19:00:00 10.6 42 Oeste 53 Noroeste 0 1015 1.8 75
2018-01-11 18:00:00 10.4 51 Oeste 62 Oeste 0 1014.6 1.8 75
2018-01-11 17:00:00 10.5 52 Oeste 68 Oeste 0 1014 1.7 73
2018-01-11 16:00:00 11.2 58 Oeste 70 Oeste 0 1013.2 0.7 66
2018-01-11 15:00:00 11.4 59 Oeste 72 Noroeste 0 1012.8 0.2 64
2018-01-11 14:00:00 11.6 61 Oeste 75 Oeste 0 1012.3 1.1 60
2018-01-11 13:00:00 11.7 63 Oeste 72 Noroeste 0 1012.5 1.8 61
2018-01-11 12:00:00 10.5 54 Noroeste 76 Noroeste 0 1012.6 2.3 70
2018-01-11 11:00:00 10.9 62 Oeste 77 Oeste 0 1011.2 1.3 56
2018-01-11 10:00:00 10.6 63 Oeste 77 Noroeste 0 1010.7 1.5 61
2018-01-11 09:00:00 10.3 64 Noroeste 77 Noroeste 0.2 1010.3 2.6 59
2018-01-11 08:00:00 10.2 57 Oeste 77 Oeste 0 1009.9 3.7 65
2018-01-11 07:00:00 9.4 63 Oeste 84 Noroeste 0 1009.2 2.4 66
2018-01-11 06:00:00 10.1 65 Noroeste 96 Oeste 0.2 1007.7 1 63
2018-01-11 05:00:00 9.4 65 Noroeste 95 Noroeste 0.2 1006.2 -0.1 63
2018-01-11 04:00:00 9.1 74 Oeste 86 Oeste 0 1006.8 1.5 71
2018-01-11 03:00:00 8.9 74 Oeste 93 Noroeste 0.2 1006.7 1.8 75
2018-01-11 02:00:00 9.2 70 Oeste 89 Noroeste 0 1006.3 3 67
2018-01-11 01:00:00 9.5 79 Noroeste 100 Oeste 0.6 1005.3 0.4 71
2018-01-11 00:00:00 9 80 Oeste 112 Noroeste 0.2 1004.9 1.1 76
2018-01-10 23:00:00 9.4 77 Oeste 97 Oeste 0 1003.3 -0.1 75
2018-01-10 22:00:00 7.2 55 Oeste 86 Oeste 0 1004.9 1.4 81
2018-01-10 21:00:00 10.2 67 Oeste 85 Oeste 0.2 1003.8 0.8 72
2018-01-10 20:00:00 9.8 68 Oeste 90 Oeste 0.2 1003.4 1.5 71
2018-01-10 19:00:00 10.2 68 Oeste 97 Oeste 0 1003.5 3.6 71
2018-01-10 18:00:00 8.6 77 Oeste 105 Oeste 0.2 1003 3.7 76
2018-01-10 17:00:00 8.7 64 Noroeste 105 Oeste 0.4 1001.9 3.3 78
2018-01-10 16:00:00 9.4 87 Oeste 125 Oeste 0.2 999.9 3.1 74
2018-01-10 15:00:00 8.7 68 Oeste 121 Oeste 0.2 999.3 3.1 80
2018-01-10 14:00:00 11.1 75 Oeste 112 Oeste 0.2 998.6 2.6 65
2018-01-10 13:00:00 10.9 84 Oeste 114 Oeste 0.2 996.8 0.8 69
2018-01-10 12:00:00 11.3 82 Oeste 112 Oeste 0.2 996.2 -0.5 69
2018-01-10 11:00:00 10 76 Oeste 116 Sudoeste 0.2 996 -1.5 82
2018-01-10 10:00:00 11.2 35 Sudoeste 71 Sudoeste 0 996 -2.7 72
2018-01-10 09:00:00 11.5 45 Sudoeste 73 Sudoeste 0 996.7 -3.5 66
2018-01-10 08:00:00 11 43 Sudoeste 67 Oeste 0 997.5 -3.7 69
2018-01-10 07:00:00 10.8 39 Sudoeste 61 Sudoeste 0.2 998.7 -2.8 71
2018-01-10 06:00:00 9.8 33 Sudoeste 45 Sudoeste 0 1000.2 -1.1 76
2018-01-10 05:00:00 9.6 32 Sudoeste 42 Sudoeste 0 1001.2 -0.1 79
2018-01-10 04:00:00 9.4 37 Oeste 49 Oeste 0 1001.5 -0.3 81
2018-01-10 03:00:00 9.4 35 Oeste 47 Oeste 0 1001.3 0 83
2018-01-10 02:00:00 9.6 37 Sudoeste 47 Oeste 0 1001.3 0.8 84
2018-01-10 01:00:00 10.2 37 Oeste 48 Oeste 0 1001.8 1.5 84
2018-01-10 00:00:00 10.3 37 Oeste 56 Oeste 0 1001.3 1.8 83
2018-01-09 23:00:00 10.6 47 Oeste 56 Oeste 0 1000.5 1.6 84
2018-01-09 22:00:00 11.2 41 Oeste 62 Oeste 0 1000.3 2.2 79
2018-01-09 21:00:00 11.1 46 Oeste 63 Oeste 0.2 999.5 2.6 82
2018-01-09 20:00:00 11.1 48 Oeste 63 Oeste 0 998.9 2.7 84
2018-01-09 19:00:00 10.8 49 Oeste 87 Oeste 0 998.1 2.6 86
2018-01-09 18:00:00 12.6 53 Oeste 66 Oeste 0 996.9 1.4 75
2018-01-09 17:00:00 13.1 51 Oeste 62 Oeste 0 996.2 1.8 72
2018-01-09 16:00:00 13.3 55 Oeste 66 Oeste 0 995.5 3.1 73
2018-01-09 15:00:00 13.7 50 Oeste 75 Oeste 0 995.5 3.5 70
2018-01-09 14:00:00 13 70 Oeste 105 Oeste 0 994.4 0.8 72
2018-01-09 13:00:00 12.9 89 Oeste 109 Oeste 0 992.4 -1.6 69
2018-01-09 12:00:00 11.8 73 Sudoeste 106 Oeste 0 992 -2 71
2018-01-09 11:00:00 10.9 35 Sudoeste 61 Sudoeste 0 993.6 -0.3 70
2018-01-09 10:00:00 10.1 41 Sudoeste 77 Oeste 0 994 -0.9 75
2018-01-09 09:00:00 10.7 54 Sudoeste 74 Oeste 0.2 994 -1.6 67
2018-01-09 08:00:00 10.2 48 Sudoeste 64 Sudoeste 0 993.9 -3.4 63
2018-01-09 07:00:00 10 18 Sur 48 Sudoeste 0 994.9 -3.3 61
2018-01-09 06:00:00 10.3 27 Sudoeste 48 Sudoeste 0 995.6 -2.6 56
2018-01-09 05:00:00 9.8 37 Sudoeste 51 Sudoeste 0 997.3 -0.9 63
2018-01-09 04:00:00 9.8 40 Oeste 54 Sudoeste 0 998.2 -0.7 72
2018-01-09 03:00:00 10.1 27 Oeste 40 Sudoeste 0 998.2 -1.2 75
2018-01-09 02:00:00 10.7 27 Sudoeste 50 Sudoeste 0 998.2 -1.9 73
2018-01-09 01:00:00 10.4 41 Oeste 55 Sudoeste 0 998.9 -1.8 81
2018-01-09 00:00:00 10.5 35 Oeste 53 Oeste 0 999.4 -1.6 82
2018-01-08 23:00:00 10.9 39 Oeste 47 Oeste 0 1000.1 -0.7 83
2018-01-08 22:00:00 11 32 Oeste 41 Sudoeste 0 1000.7 0.1 86
2018-01-08 21:00:00 11.1 29 Oeste 41 Oeste 0 1001 0.2 87
2018-01-08 20:00:00 11.1 32 Oeste 37 Oeste 0 1000.8 0.1 89
2018-01-08 19:00:00 11 25 Oeste 33 Oeste 0 1000.6 0.1 89
2018-01-08 18:00:00 11 28 Oeste 34 Oeste 0 1000.8 0.5 90
2018-01-08 17:00:00 11.3 24 Oeste 33 Sudoeste 0 1000.7 0.3 89
2018-01-08 16:00:00 11.9 22 Oeste 32 Oeste 0 1000.5 -0.3 86
2018-01-08 15:00:00 12.6 26 Oeste 30 Oeste 0 1000.3 -0.9 83
2018-01-08 14:00:00 12.8 20 Oeste 23 Oeste 0 1000.4 -0.8 82
2018-01-08 13:00:00 12.6 17 Oeste 19 Sudoeste 0 1000.8 -0.1 85
2018-01-08 12:00:00 11.7 16 Oeste 23 Oeste 0 1001.2 0.8 87
2018-01-08 11:00:00 11.1 18 Oeste 26 Oeste 0 1001.2 1.6 89
2018-01-08 10:00:00 10.6 22 Oeste 26 Oeste 0 1000.9 1.4 90
2018-01-08 09:00:00 10.1 15 Oeste 19 Oeste 0 1000.4 1.2 90
2018-01-08 08:00:00 10.4 5 Oeste 11 Oeste 0 999.6 0.5 84
2018-01-08 07:00:00 10.7 9 Este 20 Este 0 999.5 0.8 84
2018-01-08 06:00:00 11.2 18 Este 20 Este 0 999.2 1.1 84
2018-01-08 05:00:00 11.3 17 Nordeste 24 Nordeste 0 999.1 1.6 84
2018-01-08 04:00:00 11.4 22 Nordeste 31 Este 0 998.7 1.2 83
2018-01-08 03:00:00 11.4 21 Nordeste 29 Nordeste 0 998.1 0.5 83
2018-01-08 02:00:00 11.5 22 Nordeste 32 Nordeste 0 997.5 0.3 83
2018-01-08 01:00:00 11.5 22 Nordeste 36 Nordeste 0 997.5 0.6 86
2018-01-08 00:00:00 11.1 24 Nordeste 30 Nordeste 0 997.6 1.2 91
2018-01-07 23:00:00 11 15 Nordeste 29 Nordeste 0.2 997.2 0.9 92
2018-01-07 22:00:00 10.8 18 Nordeste 58 Nordeste 0.2 996.9 1 93
2018-01-07 21:00:00 11.4 33 Nordeste 57 Norte 0 996.4 0.6 88
2018-01-07 20:00:00 10.7 33 Nordeste 58 Norte 0.2 996.3 0.7 88
2018-01-07 19:00:00 10.4 34 Nordeste 62 Nordeste 0.2 995.9 0.6 89
2018-01-07 18:00:00 9.5 38 Nordeste 61 Nordeste 0.2 995.8 0.2 91
2018-01-07 17:00:00 9.9 33 Norte 67 Nordeste 0.2 995.6 -0.2 85
2018-01-07 16:00:00 9.8 42 Nordeste 68 Nordeste 0.4 995.3 -1.1 83
2018-01-07 15:00:00 9.6 37 Norte 79 Nordeste 0.4 995.6 -1.6 86
2018-01-07 14:00:00 9.6 44 Nordeste 69 Nordeste 0.2 995.8 -1.3 81
2018-01-07 13:00:00 10.2 35 Norte 69 Nordeste 0.2 996.4 -0.6 75
2018-01-07 12:00:00 10.4 35 Nordeste 61 Nordeste 0.2 997.2 0.7 69
2018-01-07 11:00:00 10.5 35 Nordeste 58 Norte 0.4 997.1 0.4 69
2018-01-07 10:00:00 9.5 38 Nordeste 63 Nordeste 0.2 997 0.3 73
2018-01-07 09:00:00 8.3 39 Nordeste 77 Nordeste 0.4 996.5 0 76
2018-01-07 08:00:00 8 30 Norte 69 Nordeste 0 996.7 0.1 79
2018-01-07 07:00:00 9.5 32 Norte 71 Norte 0 996.7 0 72
2018-01-07 06:00:00 9.9 37 Nordeste 62 Nordeste 0 996.5 -0.3 64
2018-01-07 05:00:00 9.8 34 Nordeste 66 Nordeste 0 996.6 -0.3 69
2018-01-07 04:00:00 9.7 31 Norte 59 Nordeste 0 996.7 -0.4 66
2018-01-07 03:00:00 9.7 26 Nordeste 48 Nordeste 0 996.8 -0.5 71
2018-01-07 02:00:00 9.6 32 Nordeste 50 Nordeste 0 996.9 -0.6 68
2018-01-07 01:00:00 9.7 28 Nordeste 49 Nordeste 0 997.1 0 66
2018-01-07 00:00:00 9.4 29 Nordeste 45 Nordeste 0 997.3 0.4 65
2018-01-06 23:00:00 8.9 23 Nordeste 41 Norte 0 997.5 0.6 76
2018-01-06 22:00:00 9.1 16 Nordeste 43 Nordeste 0 997.1 0.9 69
2018-01-06 21:00:00 8.5 13 Norte 26 Norte 0.2 996.9 1.1 76
2018-01-06 20:00:00 8.2 19 Este 41 Norte 0.2 996.9 1.6 77
2018-01-06 19:00:00 9 13 Norte 45 Norte 0.4 996.2 1.1 70
2018-01-06 18:00:00 9.2 9 Noroeste 31 Noroeste 0 995.8 1 71
2018-01-06 17:00:00 9 24 Oeste 29 Oeste 0 995.3 0.3 73
2018-01-06 16:00:00 9.6 29 Oeste 41 Oeste 0 995.1 -0.3 69
2018-01-06 15:00:00 9.7 26 Oeste 36 Oeste 0 994.8 -0.8 69
2018-01-06 14:00:00 9.7 22 Oeste 34 Oeste 0 995 -1.2 75
2018-01-06 13:00:00 8.4 27 Oeste 34 Oeste 0 995.4 0.3 83
2018-01-06 12:00:00 7.3 25 Oeste 32 Sudoeste 0 995.6 1.1 89
2018-01-06 11:00:00 6.6 15 Oeste 27 Oeste 0 996.2 2.4 82
2018-01-06 10:00:00 6.7 23 Oeste 36 Oeste 0 995.1 1.4 85
2018-01-06 09:00:00 5.4 26 Oeste 49 Oeste 0 994.5 1 87
2018-01-06 08:00:00 5.8 36 Oeste 43 Oeste 0 993.8 0.3 87
2018-01-06 07:00:00 5.9 25 Oeste 41 Sudoeste 0 993.7 -0.2 82
2018-01-06 06:00:00 5.6 41 Sudoeste 59 Sudoeste 0.2 993.5 -0.5 87
2018-01-06 05:00:00 6.1 32 Sudoeste 43 Oeste 0.2 993.5 -1.2 80
2018-01-06 04:00:00 6.2 28 Oeste 37 Oeste 0 993.9 -0.8 83
2018-01-06 03:00:00 6 27 Sudoeste 50 Oeste 0 994 -1.7 85
2018-01-06 02:00:00 6.4 31 Oeste 52 Sudoeste 0.4 994.7 -0.6 83
2018-01-06 01:00:00 6.3 40 Oeste 49 Oeste 0 994.7 -0.7 83
2018-01-06 00:00:00 6.7 41 Oeste 60 Oeste 0 995.7 -0.1 84
2018-01-05 23:00:00 6.9 37 Oeste 46 Oeste 0.4 995.3 -0.6 77
2018-01-05 22:00:00 7.1 31 Oeste 51 Oeste 0.2 995.4 0.2 80
2018-01-05 21:00:00 7.1 36 Oeste 48 Oeste 0.6 995.8 0.1 80
2018-01-05 20:00:00 8.7 42 Oeste 67 Noroeste 0.2 995.9 0.5 71
2018-01-05 19:00:00 8.6 45 Oeste 70 Oeste 0.6 995.2 -0.5 77
2018-01-05 18:00:00 8.7 49 Oeste 83 Oeste 0.4 995.7 0.1 77
2018-01-05 17:00:00 9.9 49 Oeste 67 Oeste 0.6 995.4 -0.1 63
2018-01-05 16:00:00 10.2 54 Oeste 77 Oeste 0.6 995.7 -0.8 64
2018-01-05 15:00:00 10.5 67 Oeste 81 Oeste 0.6 995.6 -1.4 65
2018-01-05 14:00:00 10.4 69 Oeste 81 Oeste 0.6 995.5 -1.5 69
2018-01-05 13:00:00 11.1 60 Oeste 78 Oeste 0.6 996.5 -1.1 66
2018-01-05 12:00:00 10.5 63 Oeste 75 Oeste 0.6 997 -0.2 75
2018-01-05 11:00:00 10.4 66 Oeste 75 Oeste 0.6 997 -0.2 76
2018-01-05 10:00:00 9.9 37 Oeste 66 Oeste 0.6 997.6 1.1 91
2018-01-05 09:00:00 9.9 32 Oeste 49 Oeste 0.6 997.2 0.4 94
2018-01-05 08:00:00 10 38 Oeste 63 Sudoeste 0.6 997.2 -1.2 95
2018-01-05 07:00:00 9.9 48 Oeste 63 Sudoeste 0.8 996.5 -2 93
2018-01-05 06:00:00 9.6 49 Oeste 60 Oeste 0.8 996.8 -0.8 95
2018-01-05 05:00:00 9.9 34 Oeste 63 Oeste 0.8 998.4 0.1 96
2018-01-05 04:00:00 9.5 60 Oeste 76 Oeste 0.8 998.5 0.6 96
2018-01-05 03:00:00 12.1 62 Oeste 81 Oeste 1 997.6 -1.4 96
2018-01-05 02:00:00 11.9 32 Oeste 75 Sudoeste 0.6 998.3 -1.7 96
2018-01-05 01:00:00 -- -- -- -- -- -- -- -- --
2018-01-05 00:00:00 -- -- -- -- -- -- -- -- --
2018-01-04 23:00:00 -- -- -- -- -- -- -- -- --
2018-01-04 22:00:00 -- -- -- -- -- -- -- -- --
2018-01-04 21:00:00 -- -- -- -- -- -- -- -- --
2018-01-04 20:00:00 -- -- -- -- -- -- -- -- --
2018-01-04 19:00:00 -- -- -- -- -- -- -- -- --
2018-01-04 18:00:00 -- -- -- -- -- -- -- -- --
2018-01-04 17:00:00 -- -- -- -- -- -- -- -- --
2018-01-04 16:00:00 -- -- -- -- -- -- -- -- --
2018-01-04 15:00:00 -- -- -- -- -- -- -- -- --
2018-01-04 14:00:00 16.1 71 Oeste 100 Sudoeste 0 1006.3 -2.4 68
2018-01-04 13:00:00 16.3 72 Oeste 93 Oeste 0 1007 -1.5 65
2018-01-04 12:00:00 16.2 69 Oeste 88 Sudoeste 0 1008.4 -0.2 66
2018-01-04 11:00:00 14.7 69 Oeste 92 Oeste 0 1008.7 -0.5 74
2018-01-04 10:00:00 13.7 77 Oeste 95 Oeste 0.2 1008.5 -1.1 85
2018-01-04 09:00:00 15 68 Oeste 87 Oeste 0 1008.6 -1.6 71
2018-01-04 08:00:00 15 62 Oeste 81 Oeste 0 1009.2 -1.7 75
2018-01-04 07:00:00 15.1 67 Oeste 80 Oeste 0 1009.6 -1.3 77
2018-01-04 06:00:00 15 60 Oeste 73 Oeste 0 1010.2 -1 79
2018-01-04 05:00:00 15 63 Oeste 87 Oeste 0 1010.9 -1.2 81
2018-01-04 04:00:00 15.1 66 Oeste 79 Oeste 0 1010.9 -2.2 80
2018-01-04 03:00:00 14.6 65 Oeste 80 Oeste 0 1011.2 -3 84
2018-01-04 02:00:00 14.1 62 Oeste 83 Oeste 0 1012.1 -1.8 87
2018-01-04 01:00:00 14 62 Oeste 71 Oeste 0 1013.1 -1.1 94
2018-01-04 00:00:00 14.4 61 Oeste 82 Oeste 0 1014.2 -0.2 90
2018-01-03 23:00:00 14.4 66 Oeste 81 Oeste 0 1013.9 -0.8 90
2018-01-03 22:00:00 14.7 65 Oeste 80 Oeste 0 1014.2 -0.5 88
2018-01-03 21:00:00 14.8 62 Oeste 74 Oeste 0 1014.4 -0.4 91
2018-01-03 20:00:00 14.9 60 Oeste 72 Oeste 0 1014.7 -0.2 94
2018-01-03 19:00:00 15 57 Oeste 73 Oeste 0 1014.7 0 95
2018-01-03 18:00:00 15.1 54 Oeste 69 Oeste 0 1014.8 -0.5 95
2018-01-03 17:00:00 15.2 54 Oeste 73 Oeste 0 1014.9 -0.7 95
2018-01-03 16:00:00 15.2 55 Oeste 62 Oeste 0.2 1014.7 -1.8 95
2018-01-03 15:00:00 15 54 Oeste 66 Oeste 0 1015.3 -1.7 94
2018-01-03 14:00:00 15 53 Oeste 60 Oeste 0.2 1015.6 -0.9 95
2018-01-03 13:00:00 15.1 54 Oeste 70 Oeste 0 1016.5 -0.1 90
2018-01-03 12:00:00 14.5 59 Oeste 69 Oeste 0 1017 1.5 95
2018-01-03 11:00:00 14.7 49 Oeste 58 Oeste 0 1016.5 1 96
2018-01-03 10:00:00 14.6 48 Oeste 66 Oeste 0 1016.6 1.2 95
2018-01-03 09:00:00 14.4 59 Oeste 69 Oeste 0.2 1015.5 0.7 95
2018-01-03 08:00:00 14.6 55 Oeste 71 Oeste 0 1015.5 0.9 94
2018-01-03 07:00:00 14.6 53 Oeste 71 Oeste 0 1015.4 0.6 94
2018-01-03 06:00:00 14.8 58 Oeste 76 Oeste 0 1014.8 0.7 94
2018-01-03 05:00:00 14.9 60 Oeste 79 Oeste 0 1014.6 0.8 93
2018-01-03 04:00:00 14.9 65 Oeste 84 Oeste 0.2 1014.8 1.1 93
2018-01-03 03:00:00 15.1 68 Oeste 87 Oeste 0 1014.1 0.6 89
2018-01-03 02:00:00 14.8 72 Oeste 99 Oeste 0 1013.8 -0.2 93
2018-01-03 01:00:00 15.3 73 Oeste 89 Oeste 0 1013.7 0 89
2018-01-03 00:00:00 15.1 68 Oeste 82 Oeste 0 1013.5 -0.4 92
2018-01-02 23:00:00 15.1 63 Oeste 72 Oeste 0 1014 0.1 92
2018-01-02 22:00:00 15.4 60 Oeste 75 Oeste 0 1013.7 -0.1 91
2018-01-02 21:00:00 15.3 59 Oeste 79 Oeste 0 1013.9 0 92
2018-01-02 20:00:00 15.2 65 Oeste 74 Oeste 0 1013.9 -0.1 94
2018-01-02 19:00:00 15 59 Oeste 73 Oeste 0 1013.8 0 94
2018-01-02 18:00:00 14.8 61 Oeste 70 Oeste 0 1013.9 0.1 94
2018-01-02 17:00:00 14.8 60 Oeste 74 Oeste 0 1014 0.4 93
2018-01-02 16:00:00 14.9 59 Oeste 71 Oeste 0 1013.8 -0.3 94
2018-01-02 15:00:00 14.8 58 Oeste 71 Oeste 0 1013.8 -1.3 93
2018-01-02 14:00:00 15.1 61 Oeste 74 Oeste 0 1013.6 -0.9 92
2018-01-02 13:00:00 14.8 55 Oeste 67 Oeste 0 1014.1 0.3 94
2018-01-02 12:00:00 14.7 51 Oeste 72 Oeste 0 1015.1 2 94
2018-01-02 11:00:00 14.7 62 Oeste 82 Oeste 0.2 1014.5 1.6 94
2018-01-02 10:00:00 14.7 66 Oeste 79 Oeste 0 1013.8 1.3 94
2018-01-02 09:00:00 14.1 61 Oeste 79 Sudoeste 0.2 1013.1 1.3 94
2018-01-02 08:00:00 13.7 60 Oeste 74 Sudoeste 0.2 1012.9 0.1 93
2018-01-02 07:00:00 13.5 60 Oeste 87 Oeste 0 1012.5 -0.7 90
2018-01-02 06:00:00 13.4 71 Sudoeste 90 Sudoeste 0.2 1011.8 -1.8 88
2018-01-02 05:00:00 13.3 62 Oeste 77 Oeste 0 1012.8 -1 85
2018-01-02 04:00:00 13.7 66 Oeste 82 Oeste 0 1013.2 -0.9 81
2018-01-02 03:00:00 13.8 60 Oeste 79 Oeste 0 1013.6 -1.3 79
2018-01-02 02:00:00 13.5 63 Oeste 78 Oeste 0 1013.8 -1.1 81
2018-01-02 01:00:00 13.3 64 Oeste 77 Oeste 0 1014.1 -1 84
2018-01-02 00:00:00 13.3 57 Oeste 76 Oeste 0 1014.9 -0.3 82
2018-01-01 23:00:00 12.9 58 Oeste 72 Oeste 0 1014.9 -0.2 84
2018-01-01 22:00:00 12.6 56 Oeste 70 Oeste 0 1015.1 -0.1 90
2018-01-01 21:00:00 13.1 54 Oeste 66 Oeste 0 1015.2 1.2 89
2018-01-01 20:00:00 13.2 53 Oeste 65 Oeste 0 1015.1 1.5 89
2018-01-01 19:00:00 12.4 46 Oeste 78 Oeste 0.2 1015.2 2.2 91
2018-01-01 18:00:00 12.4 54 Oeste 80 Oeste 1 1014 3.2 91
2018-01-01 17:00:00 12.2 68 Oeste 86 Oeste 0.8 1013.6 3.8 90
2018-01-01 16:00:00 12.5 72 Oeste 108 Oeste 0 1013 3 83
2018-01-01 15:00:00 13.1 89 Oeste 117 Oeste 0.2 1010.8 0.8 84
2018-01-01 14:00:00 13.7 92 Oeste 116 Oeste 0.2 1009.8 -0.1 81
2018-01-01 13:00:00 13.8 93 Oeste 113 Oeste 0 1010 -0.2 80
2018-01-01 12:00:00 13.4 92 Oeste 114 Oeste 0 1010 0.2 82
2018-01-01 11:00:00 12.8 93 Oeste 117 Oeste 0.2 1009.9 -0.4 84
2018-01-01 10:00:00 12 77 Oeste 103 Oeste 0 1010.2 -0.6 86
2018-01-01 09:00:00 12.4 71 Oeste 98 Oeste 0 1009.8 -0.9 76
2018-01-01 08:00:00 11.7 69 Oeste 90 Sudoeste 0 1010.3 -1 80
2018-01-01 07:00:00 11.4 71 Oeste 93 Sudoeste 0 1010.8 -1.2 81
2018-01-01 06:00:00 12.5 71 Oeste 96 Oeste 0 1010.7 -2.3 67
2018-01-01 05:00:00 12.1 66 Oeste 85 Oeste 0 1011.3 -2 69
2018-01-01 04:00:00 11.8 67 Oeste 86 Oeste 0 1012 -1.7 72
2018-01-01 03:00:00 11.3 59 Oeste 83 Oeste 0 1013 -0.5 77
2018-01-01 02:00:00 11.2 54 Oeste 72 Sudoeste 0 1013.3 -0.2 75
2018-01-01 01:00:00 11.1 55 Oeste 68 Oeste 0 1013.7 1 74
2018-01-01 00:00:00 11 52 Sudoeste 68 Oeste 0 1013.5 1.5 71
2017-12-31 23:00:00 11.2 59 Oeste 78 Oeste 0 1013.5 2.2 72
2017-12-31 22:00:00 11.3 68 Oeste 82 Oeste 0 1012.7 2.3 70
2017-12-31 21:00:00 11 65 Oeste 87 Oeste 0 1012 2.8 73
2017-12-31 20:00:00 10.4 63 Oeste 110 Oeste 1 1011.3 3.9 73
2017-12-31 19:00:00 12.3 63 Oeste 86 Oeste 0 1010.4 3.2 64
2017-12-31 18:00:00 11.9 76 Oeste 107 Oeste 0 1009.2 2.8 65
2017-12-31 17:00:00 12.1 73 Oeste 106 Oeste 0 1007.4 3.3 63
2017-12-31 16:00:00 10.9 61 Oeste 92 Oeste 0 1007.2 2.6 70
2017-12-31 15:00:00 9 97 Oeste 131 Oeste 0.2 1006.4 2.5 68
2017-12-31 14:00:00 11.1 89 Oeste 105 Noroeste 0 1004.1 2.9 65
2017-12-31 13:00:00 12.1 64 Oeste 85 Oeste 0 1004.6 2 77
2017-12-31 12:00:00 10.9 60 Oeste 93 Sudoeste 1.8 1003.9 3.6 86
2017-12-31 11:00:00 10.5 72 Sudoeste 87 Oeste 1.8 1001.2 2.6 84
2017-12-31 10:00:00 11.3 60 Oeste 87 Oeste 3 1002.6 2.6 87
2017-12-31 09:00:00 11.6 80 Oeste 98 Oeste 0.8 1000.3 -0.3 86
2017-12-31 08:00:00 14.9 60 Sudoeste 98 Oeste 0 998.6 -3.3 61
2017-12-31 07:00:00 14.8 55 Sudoeste 95 Sudoeste 0 1000 -3.3 60
2017-12-31 06:00:00 15.2 54 Sudoeste 81 Sudoeste 0 1000.6 -3.1 59
2017-12-31 05:00:00 15 50 Sudoeste 84 Oeste 0 1001.9 -2.8 62
2017-12-31 04:00:00 15.1 54 Oeste 80 Oeste 0 1003.3 -1.9 63
2017-12-31 03:00:00 15.1 51 Sudoeste 79 Sudoeste 0 1003.7 -2.5 64
2017-12-31 02:00:00 15.1 55 Sudoeste 77 Sudoeste 0 1004.7 -1.5 64
2017-12-31 01:00:00 15 61 Oeste 86 Sudoeste 0 1005.2 -1.4 66